Time;durP1;ratioP1;P1;durP2;ratioP2;P2;SDS_P1;SDS_P2;PMS_P1;PMS_P2;Temp;Humidity;BMP_temperature;BMP_pressure;BME280_temperature;BME280_humidity;BME280_pressure;Samples;Min_cycle;Max_cycle;Signal;HPM_P1;HPM_P2
2022/01/08 00:01:32;;;;;;;23.83;11.63;;;2.20;99.90;;;;;;5009667;28;20061;-61
2022/01/08 00:03:58;;;;;;;23.20;11.45;;;2.20;99.90;;;;;;5009351;28;20041;-61
2022/01/08 00:06:23;;;;;;;25.15;11.88;;;2.20;99.90;;;;;;5009440;28;20551;-61
2022/01/08 00:08:49;;;;;;;20.45;11.00;;;2.30;99.90;;;;;;5009192;28;20406;-62
2022/01/08 00:11:19;;;;;;;20.98;11.38;;;2.30;99.90;;;;;;5009392;28;20050;-61
2022/01/08 00:13:45;;;;;;;22.30;10.05;;;2.30;99.90;;;;;;5009247;28;20092;-62
2022/01/08 00:16:10;;;;;;;23.33;11.52;;;2.30;99.90;;;;;;5013120;28;20046;-61
2022/01/08 00:18:36;;;;;;;22.55;10.95;;;2.30;99.90;;;;;;5013377;28;20038;-61
2022/01/08 00:21:01;;;;;;;19.95;11.05;;;2.30;99.90;;;;;;5013129;28;20045;-63
2022/01/08 00:23:27;;;;;;;21.17;11.05;;;2.20;99.90;;;;;;5013044;28;20092;-61
2022/01/08 00:25:53;;;;;;;21.77;11.77;;;2.30;99.90;;;;;;5012970;28;20521;-62
2022/01/08 00:28:18;;;;;;;24.23;12.57;;;2.30;99.90;;;;;;5013346;28;20037;-62
2022/01/08 00:30:45;;;;;;;25.10;13.27;;;2.30;99.90;;;;;;5012914;28;20393;-62
2022/01/08 00:33:10;;;;;;;24.98;12.88;;;2.30;99.90;;;;;;5012711;28;20033;-61
2022/01/08 00:35:36;;;;;;;23.95;12.75;;;2.40;99.90;;;;;;5012794;28;20069;-62
2022/01/08 00:38:02;;;;;;;24.83;12.45;;;2.40;99.90;;;;;;5013200;28;20038;-63
2022/01/08 00:40:28;;;;;;;25.90;12.85;;;2.40;99.90;;;;;;5013063;28;20034;-61
2022/01/08 00:42:54;;;;;;;25.92;12.90;;;2.40;99.90;;;;;;5011337;28;20046;-62
2022/01/08 00:45:19;;;;;;;28.33;13.48;;;2.50;99.90;;;;;;5012784;28;20085;-62
2022/01/08 00:47:45;;;;;;;25.02;12.77;;;2.50;99.90;;;;;;5012891;28;20038;-61
2022/01/08 00:50:12;;;;;;;25.50;13.20;;;2.60;99.90;;;;;;5012668;28;20084;-61
2022/01/08 00:52:38;;;;;;;24.40;13.02;;;2.60;99.90;;;;;;5012188;28;20480;-61
2022/01/08 00:55:05;;;;;;;23.27;12.85;;;2.60;99.90;;;;;;5011079;28;20052;-62
2022/01/08 00:57:30;;;;;;;25.63;13.15;;;2.60;99.90;;;;;;5012738;28;20069;-62
2022/01/08 00:59:56;;;;;;;27.02;13.57;;;2.50;99.90;;;;;;5012565;28;20069;-61
2022/01/08 01:02:22;;;;;;;27.55;13.90;;;2.50;99.90;;;;;;5011092;28;20405;-61
2022/01/08 01:04:47;;;;;;;29.13;13.55;;;2.50;99.90;;;;;;5012377;28;20033;-61
2022/01/08 01:07:13;;;;;;;29.98;14.25;;;2.40;99.90;;;;;;5012224;28;20057;-61
2022/01/08 01:09:38;;;;;;;26.98;14.38;;;2.40;99.90;;;;;;5012504;28;20097;-61
2022/01/08 01:12:04;;;;;;;28.05;14.52;;;2.30;99.90;;;;;;5012476;28;20041;-61
2022/01/08 01:14:31;;;;;;;31.00;14.45;;;2.20;99.90;;;;;;5011925;28;20100;-61
2022/01/08 01:16:57;;;;;;;32.83;15.20;;;2.20;99.90;;;;;;5010661;28;20441;-62
2022/01/08 01:19:22;;;;;;;30.10;14.52;;;2.10;99.90;;;;;;4994781;28;20041;-61
2022/01/08 01:21:49;;;;;;;25.55;13.73;;;2.00;99.90;;;;;;5012005;28;20507;-61
2022/01/08 01:24:19;;;;;;;27.80;14.38;;;1.90;99.90;;;;;;5012026;28;20084;-61
2022/01/08 01:27:09;;;;;;;29.98;14.55;;;1.80;99.90;;;;;;5011318;28;20046;-62
2022/01/08 01:43:21;;;;;;;29.75;14.70;;;1.50;99.90;;;;;;5011675;28;20064;-61
2022/01/08 01:48:26;;;;;;;30.35;15.77;;;1.40;99.90;;;;;;5011534;28;20049;-62
2022/01/08 01:50:52;;;;;;;28.10;15.30;;;1.30;99.90;;;;;;5011371;28;20041;-63
2022/01/08 01:53:17;;;;;;;27.67;14.60;;;1.30;99.90;;;;;;5011491;28;20121;-61
2022/01/08 01:55:45;;;;;;;27.48;14.77;;;1.30;99.90;;;;;;5011631;28;20046;-62
2022/01/08 01:58:11;;;;;;;29.85;15.07;;;1.30;99.90;;;;;;5011398;28;20045;-61
2022/01/08 02:00:37;;;;;;;31.25;16.33;;;1.20;99.90;;;;;;5011261;28;20050;-61
2022/01/08 02:03:03;;;;;;;28.48;15.32;;;1.20;99.90;;;;;;5010972;28;20041;-61
2022/01/08 02:05:28;;;;;;;35.17;17.25;;;1.20;99.90;;;;;;5011054;28;20038;-62
2022/01/08 02:07:55;;;;;;;35.50;16.55;;;1.30;99.90;;;;;;5011595;28;20108;-62
2022/01/08 02:10:24;;;;;;;29.33;15.88;;;1.40;99.90;;;;;;5011198;28;20053;-61
2022/01/08 02:12:50;;;;;;;31.35;14.98;;;1.50;99.90;;;;;;5011013;28;20049;-62
2022/01/08 02:15:16;;;;;;;29.75;15.18;;;1.50;99.90;;;;;;5011137;28;20029;-61
2022/01/08 02:17:41;;;;;;;29.15;14.20;;;1.60;99.90;;;;;;5011084;28;20133;-61
2022/01/08 02:20:09;;;;;;;25.88;14.52;;;1.60;99.90;;;;;;5010570;28;20038;-62
2022/01/08 02:22:34;;;;;;;29.17;14.90;;;1.60;99.90;;;;;;5010808;28;20045;-62
2022/01/08 02:25:00;;;;;;;25.15;12.48;;;1.60;99.90;;;;;;5011186;28;20445;-61
2022/01/08 02:27:25;;;;;;;27.45;13.20;;;1.60;99.90;;;;;;5010912;28;20038;-62
2022/01/08 02:29:52;;;;;;;25.90;12.75;;;1.60;99.90;;;;;;5009494;28;20429;-61
2022/01/08 02:32:24;;;;;;;26.40;13.02;;;1.60;99.90;;;;;;5010676;28;20121;-61
2022/01/08 02:34:49;;;;;;;27.63;12.63;;;1.60;99.90;;;;;;5010877;28;20079;-61
2022/01/08 02:37:17;;;;;;;23.00;11.80;;;1.50;99.90;;;;;;5010570;28;20498;-61
2022/01/08 02:39:43;;;;;;;25.67;12.15;;;1.40;99.90;;;;;;5009993;28;20102;-61
2022/01/08 02:42:13;;;;;;;25.23;11.48;;;1.40;99.90;;;;;;5009190;28;20050;-62
2022/01/08 02:44:40;;;;;;;24.63;12.05;;;1.50;99.90;;;;;;5009066;28;20042;-62
2022/01/08 02:47:07;;;;;;;23.60;11.25;;;1.50;99.90;;;;;;5010410;28;20051;-61
2022/01/08 02:49:34;;;;;;;23.75;10.93;;;1.60;99.90;;;;;;5010544;28;20034;-62
2022/01/08 02:52:00;;;;;;;23.52;10.05;;;1.60;99.90;;;;;;5009074;28;20053;-61
2022/01/08 02:54:25;;;;;;;19.80;10.18;;;1.70;99.90;;;;;;5010317;28;20034;-61
2022/01/08 02:56:51;;;;;;;18.58;10.18;;;1.60;99.90;;;;;;5010474;28;20063;-61
2022/01/08 02:59:17;;;;;;;21.00;10.60;;;1.50;99.90;;;;;;5010410;28;20034;-61
2022/01/08 03:01:43;;;;;;;22.13;10.85;;;1.50;99.90;;;;;;5010249;28;20099;-61
2022/01/08 03:04:10;;;;;;;22.40;11.30;;;1.40;99.90;;;;;;5010160;28;20542;-61
2022/01/08 03:06:36;;;;;;;23.20;10.90;;;1.40;99.90;;;;;;5017188;23;20050;-62
2022/01/08 03:09:02;;;;;;;21.35;10.55;;;1.40;99.90;;;;;;5010008;28;20052;-62
2022/01/08 03:11:28;;;;;;;19.83;11.15;;;1.30;99.90;;;;;;5009837;28;20056;-62
2022/01/08 03:13:53;;;;;;;23.63;11.13;;;1.30;99.90;;;;;;5009636;28;20049;-62
2022/01/08 03:16:19;;;;;;;24.15;10.85;;;1.30;99.90;;;;;;5009836;28;20026;-62
2022/01/08 03:18:47;;;;;;;26.13;12.18;;;1.30;99.90;;;;;;5010335;28;20037;-62
2022/01/08 03:21:18;;;;;;;24.40;12.10;;;1.20;99.90;;;;;;5008767;28;20049;-62
2022/01/08 03:23:49;;;;;;;20.50;10.93;;;1.20;99.90;;;;;;5009680;28;20092;-62
2022/01/08 03:26:17;;;;;;;25.45;10.70;;;1.10;99.90;;;;;;5008636;28;20054;-62
2022/01/08 03:28:43;;;;;;;22.85;11.07;;;1.10;99.90;;;;;;5009833;28;20061;-62
2022/01/08 03:31:10;;;;;;;20.33;11.00;;;1.10;99.90;;;;;;5009843;28;20045;-62
2022/01/08 03:33:35;;;;;;;22.38;11.35;;;1.00;99.90;;;;;;5008275;28;20042;-62
2022/01/08 03:36:01;;;;;;;23.73;11.02;;;1.00;99.90;;;;;;5009816;28;20044;-62
2022/01/08 03:38:26;;;;;;;22.58;12.00;;;1.00;99.90;;;;;;5009886;28;20037;-62
2022/01/08 03:40:52;;;;;;;22.83;10.65;;;0.90;99.90;;;;;;5008519;28;20050;-62
2022/01/08 03:43:18;;;;;;;24.17;11.18;;;0.90;99.90;;;;;;5009287;28;20037;-62
2022/01/08 03:45:43;;;;;;;23.42;11.10;;;0.90;99.90;;;;;;5009622;28;20042;-62
2022/01/08 03:50:44;;;;;;;28.35;12.45;;;0.80;99.90;;;;;;5009335;28;20042;-62
2022/01/08 03:53:10;;;;;;;27.00;13.02;;;0.90;99.90;;;;;;5009208;28;20469;-62
2022/01/08 03:55:36;;;;;;;27.15;12.90;;;0.90;99.90;;;;;;5008157;28;20092;-62
2022/01/08 03:58:02;;;;;;;30.25;12.80;;;0.90;99.90;;;;;;5009433;28;20045;-62
2022/01/08 04:00:27;;;;;;;26.67;12.52;;;0.90;99.90;;;;;;5009578;28;20034;-61
2022/01/08 04:02:53;;;;;;;25.70;13.18;;;0.90;99.90;;;;;;5009294;28;20042;-62
2022/01/08 04:05:19;;;;;;;30.13;13.00;;;1.00;99.90;;;;;;5009269;28;20033;-61
2022/01/08 04:07:45;;;;;;;28.42;13.48;;;1.00;99.90;;;;;;5008103;28;20044;-61
2022/01/08 04:10:11;;;;;;;30.25;12.35;;;1.00;99.90;;;;;;5009429;28;20038;-62
2022/01/08 04:12:42;;;;;;;26.15;12.95;;;1.10;99.90;;;;;;5008987;28;20048;-62
2022/01/08 04:15:31;;;;;;;28.63;13.50;;;1.00;99.90;;;;;;5009267;28;20030;-61
2022/01/08 04:17:55;;;;;;;28.65;12.98;;;1.10;99.90;;;;;;5009359;28;20041;-62
2022/01/08 04:20:22;;;;;;;29.30;12.65;;;1.00;99.90;;;;;;5008321;28;20042;-62
2022/01/08 04:22:50;;;;;;;31.83;12.98;;;1.00;99.90;;;;;;5008919;28;20037;-61
2022/01/08 04:25:18;;;;;;;28.55;13.43;;;1.00;99.90;;;;;;5009307;28;20056;-61
2022/01/08 04:27:44;;;;;;;27.52;13.02;;;1.10;99.90;;;;;;5009360;28;20048;-62
2022/01/08 04:30:10;;;;;;;30.05;13.30;;;1.10;99.90;;;;;;5009148;28;20406;-62
2022/01/08 04:32:35;;;;;;;26.25;12.65;;;1.20;99.90;;;;;;5009094;28;20034;-61
2022/01/08 04:35:01;;;;;;;25.77;12.82;;;1.10;99.90;;;;;;5009146;28;20045;-62
2022/01/08 04:37:27;;;;;;;34.83;14.88;;;1.10;99.90;;;;;;5007402;28;20041;-62
2022/01/08 04:39:52;;;;;;;30.58;13.20;;;1.10;99.90;;;;;;5009444;28;20434;-62
2022/01/08 04:42:18;;;;;;;24.83;13.07;;;1.00;99.90;;;;;;5009249;28;20120;-61
2022/01/08 04:44:44;;;;;;;25.98;13.60;;;1.10;99.90;;;;;;5008866;28;20430;-61
2022/01/08 04:47:09;;;;;;;28.33;13.43;;;1.10;99.90;;;;;;5008980;28;20084;-62
2022/01/08 04:49:35;;;;;;;27.02;14.27;;;1.00;99.90;;;;;;5008871;28;20072;-62
2022/01/08 04:52:00;;;;;;;31.45;14.20;;;1.00;99.90;;;;;;5008909;28;20052;-61
2022/01/08 04:54:26;;;;;;;27.05;12.32;;;1.00;99.90;;;;;;5007582;28;20034;-62
2022/01/08 04:56:52;;;;;;;27.92;13.18;;;1.00;99.90;;;;;;5009078;28;20538;-62
2022/01/08 04:59:18;;;;;;;27.35;13.15;;;1.00;99.90;;;;;;5008984;28;20041;-62
2022/01/08 05:01:44;;;;;;;26.80;12.95;;;1.00;99.90;;;;;;5010184;28;20038;-62
2022/01/08 05:04:10;;;;;;;25.58;12.30;;;1.00;99.90;;;;;;5012225;28;20481;-62
2022/01/08 05:06:35;;;;;;;28.58;13.30;;;0.90;99.90;;;;;;5010956;28;20136;-62
2022/01/08 05:09:02;;;;;;;29.63;12.82;;;0.90;99.90;;;;;;5012178;28;20038;-62
2022/01/08 05:11:28;;;;;;;25.77;12.32;;;0.90;99.90;;;;;;5012401;28;20096;-62
2022/01/08 05:13:54;;;;;;;26.27;11.95;;;0.90;99.90;;;;;;5012154;28;20673;-61
2022/01/08 05:16:21;;;;;;;24.52;12.10;;;1.00;99.90;;;;;;5012218;28;20030;-62
2022/01/08 05:18:49;;;;;;;25.58;12.00;;;1.00;99.90;;;;;;5011051;28;20386;-61
2022/01/08 05:21:30;;;;;;;27.95;12.32;;;1.00;99.90;;;;;;5010843;28;20049;-62
2022/01/08 05:23:57;;;;;;;24.40;10.93;;;1.00;99.90;;;;;;5010671;28;20053;-62
2022/01/08 05:26:25;;;;;;;28.92;11.93;;;1.00;99.90;;;;;;5011967;28;20049;-62
2022/01/08 05:28:51;;;;;;;21.92;10.75;;;0.90;99.90;;;;;;5011999;28;20042;-62
2022/01/08 05:31:20;;;;;;;25.73;11.00;;;1.00;99.90;;;;;;5012199;28;20064;-61
2022/01/08 05:33:46;;;;;;;22.40;11.07;;;1.00;99.90;;;;;;5011617;28;20046;-61
2022/01/08 05:36:11;;;;;;;27.30;11.90;;;0.90;99.90;;;;;;5011699;28;20406;-61
2022/01/08 05:38:37;;;;;;;22.25;10.93;;;0.90;99.90;;;;;;5011781;28;20045;-62
2022/01/08 05:41:03;;;;;;;29.48;13.07;;;0.90;99.90;;;;;;5011949;28;20068;-62
2022/01/08 05:43:28;;;;;;;27.75;12.10;;;0.90;99.90;;;;;;5011463;28;20034;-62
2022/01/08 05:45:56;;;;;;;27.20;11.93;;;0.90;99.90;;;;;;5011470;28;20056;-62
2022/01/08 05:48:22;;;;;;;22.77;11.48;;;0.90;99.90;;;;;;5010164;28;20034;-62
2022/01/08 05:50:49;;;;;;;30.60;11.55;;;0.90;99.90;;;;;;5011642;28;20030;-62
2022/01/08 05:53:16;;;;;;;26.67;11.32;;;0.80;99.90;;;;;;5011533;28;20482;-62
2022/01/08 05:55:41;;;;;;;23.90;11.95;;;0.80;99.90;;;;;;5011583;28;20038;-61
2022/01/08 05:58:07;;;;;;;23.10;11.18;;;0.80;99.90;;;;;;5011400;28;20033;-62
2022/01/08 06:00:32;;;;;;;25.80;11.65;;;0.90;99.90;;;;;;5011411;28;20052;-62
2022/01/08 06:02:58;;;;;;;24.80;11.70;;;0.90;99.90;;;;;;5010259;28;20049;-61
2022/01/08 06:05:25;;;;;;;26.15;12.07;;;0.90;99.90;;;;;;5011023;28;20806;-62
2022/01/08 06:07:51;;;;;;;23.60;11.43;;;0.90;99.90;;;;;;5009875;28;20516;-62
2022/01/08 06:10:16;;;;;;;22.88;11.57;;;0.90;99.90;;;;;;5010955;28;20501;-62
2022/01/08 06:12:42;;;;;;;25.13;11.50;;;0.90;99.90;;;;;;5010815;28;20087;-62
2022/01/08 06:15:08;;;;;;;25.65;11.38;;;0.90;99.90;;;;;;5011135;28;20141;-62
2022/01/08 06:17:34;;;;;;;22.63;11.20;;;0.80;99.90;;;;;;5010821;28;20418;-61
2022/01/08 06:19:59;;;;;;;22.20;11.25;;;0.80;99.90;;;;;;5011093;28;20042;-62
2022/01/08 06:22:25;;;;;;;20.77;10.63;;;0.80;99.90;;;;;;5011059;28;20045;-61
2022/01/08 06:24:50;;;;;;;25.80;10.90;;;0.80;99.90;;;;;;5011051;28;20045;-61
2022/01/08 06:27:16;;;;;;;18.90;10.13;;;0.80;99.90;;;;;;5010669;28;20040;-62
2022/01/08 06:29:41;;;;;;;22.75;10.93;;;0.80;99.90;;;;;;5010552;28;20603;-61
2022/01/08 06:32:07;;;;;;;22.52;11.13;;;0.70;99.90;;;;;;5007930;28;20169;-62
2022/01/08 06:34:33;;;;;;;26.88;10.93;;;0.70;99.90;;;;;;5007908;28;20037;-61
2022/01/08 06:36:58;;;;;;;25.70;11.13;;;0.60;99.90;;;;;;5007704;28;20181;-61
2022/01/08 06:39:24;;;;;;;25.50;10.82;;;0.60;99.90;;;;;;5007827;28;20247;-62
2022/01/08 06:41:49;;;;;;;26.60;11.88;;;0.50;99.90;;;;;;5007890;28;20038;-62
2022/01/08 06:44:15;;;;;;;22.70;11.43;;;0.50;99.90;;;;;;5007145;28;20067;-62
2022/01/08 06:46:41;;;;;;;22.58;11.10;;;0.50;99.90;;;;;;5007281;28;20038;-62
2022/01/08 06:49:08;;;;;;;22.15;12.10;;;0.50;99.90;;;;;;5006316;28;20044;-62
2022/01/08 06:51:33;;;;;;;25.10;11.80;;;0.50;99.90;;;;;;5007338;28;20069;-61
2022/01/08 06:53:59;;;;;;;24.38;11.48;;;0.50;99.90;;;;;;5007390;28;20042;-62
2022/01/08 06:56:24;;;;;;;26.15;10.45;;;0.50;99.90;;;;;;5006934;28;20616;-62
2022/01/08 06:58:50;;;;;;;25.38;11.50;;;0.50;99.90;;;;;;5007353;28;20410;-62
2022/01/08 07:01:16;;;;;;;23.67;11.00;;;0.40;99.90;;;;;;5007192;28;20049;-62
2022/01/08 07:03:41;;;;;;;30.10;12.65;;;0.40;99.90;;;;;;5007074;28;20081;-61
2022/01/08 07:06:07;;;;;;;31.10;11.65;;;0.40;99.90;;;;;;5006981;28;20099;-62
2022/01/08 07:08:32;;;;;;;25.33;11.13;;;0.40;99.90;;;;;;5006919;28;20401;-61
2022/01/08 07:10:58;;;;;;;25.13;10.90;;;0.40;99.90;;;;;;5006948;28;20085;-62
2022/01/08 07:13:24;;;;;;;26.23;11.05;;;0.40;99.90;;;;;;5006787;28;20099;-62
2022/01/08 07:15:49;;;;;;;24.20;11.45;;;0.40;99.90;;;;;;5006945;28;20579;-62
2022/01/08 07:18:15;;;;;;;25.15;10.85;;;0.40;99.90;;;;;;5007363;28;20038;-61
2022/01/08 07:20:40;;;;;;;22.60;12.35;;;0.40;99.90;;;;;;5007092;28;20041;-63
2022/01/08 07:23:06;;;;;;;24.85;12.35;;;0.40;99.90;;;;;;5006856;28;20041;-61
2022/01/08 07:25:32;;;;;;;22.77;12.00;;;0.40;99.90;;;;;;5006424;28;20164;-62
2022/01/08 07:27:57;;;;;;;32.20;12.63;;;0.40;99.90;;;;;;5006985;28;20041;-61
2022/01/08 07:30:23;;;;;;;29.45;13.10;;;0.40;99.90;;;;;;5006622;28;20045;-62
2022/01/08 07:32:50;;;;;;;32.85;11.95;;;0.30;99.90;;;;;;5006472;28;20516;-62
2022/01/08 07:35:21;;;;;;;30.63;12.90;;;0.30;99.90;;;;;;5006888;28;20050;-62
2022/01/08 07:37:47;;;;;;;25.92;11.88;;;0.30;99.90;;;;;;5007037;28;20049;-62
2022/01/08 07:40:14;;;;;;;28.23;12.27;;;0.30;99.90;;;;;;5006732;28;20045;-63
2022/01/08 07:42:40;;;;;;;28.35;13.35;;;0.30;99.90;;;;;;5006498;28;20042;-63
2022/01/08 07:45:07;;;;;;;30.17;12.00;;;0.30;99.90;;;;;;5006122;28;20048;-63
2022/01/08 07:47:33;;;;;;;27.95;12.48;;;0.30;99.90;;;;;;5006664;28;20096;-62
2022/01/08 07:49:59;;;;;;;29.27;13.05;;;0.40;99.90;;;;;;5006594;28;20042;-62
2022/01/08 07:52:25;;;;;;;28.73;12.25;;;0.30;99.90;;;;;;5006624;28;20137;-61
2022/01/08 07:54:50;;;;;;;26.17;12.02;;;0.30;99.90;;;;;;5004886;28;20084;-61
2022/01/08 07:57:16;;;;;;;26.92;12.30;;;0.30;99.90;;;;;;5006732;28;20042;-63
2022/01/08 07:59:42;;;;;;;28.00;12.73;;;0.30;99.90;;;;;;5005303;28;20053;-63
2022/01/08 08:02:09;;;;;;;26.77;10.90;;;0.30;99.90;;;;;;5005311;28;20089;-62
2022/01/08 08:04:34;;;;;;;31.63;14.15;;;0.40;99.90;;;;;;5006561;28;20057;-62
2022/01/08 08:07:00;;;;;;;24.83;12.10;;;0.40;99.90;;;;;;5006096;28;20045;-62
2022/01/08 08:09:25;;;;;;;28.45;12.18;;;0.40;99.90;;;;;;5006493;28;20042;-63
2022/01/08 08:11:51;;;;;;;28.17;12.75;;;0.50;99.90;;;;;;5006385;28;20130;-62
2022/01/08 08:14:16;;;;;;;29.73;12.40;;;0.50;99.90;;;;;;5006261;28;20121;-62
2022/01/08 08:16:42;;;;;;;27.25;12.88;;;0.50;99.90;;;;;;5006425;28;20513;-62
2022/01/08 08:19:07;;;;;;;29.77;12.98;;;0.60;99.90;;;;;;5006372;28;20461;-62
2022/01/08 08:21:33;;;;;;;28.30;10.27;;;0.60;99.90;;;;;;5006307;28;20089;-62
2022/01/08 08:24:00;;;;;;;25.55;12.65;;;0.60;99.90;;;;;;5004677;28;20128;-62
2022/01/08 08:26:26;;;;;;;29.85;14.18;;;0.60;99.90;;;;;;5006227;28;20706;-62
2022/01/08 08:28:51;;;;;;;22.80;12.60;;;0.70;99.90;;;;;;5006121;28;20042;-61
2022/01/08 08:31:17;;;;;;;27.20;14.50;;;0.70;99.90;;;;;;5005592;28;20045;-62
2022/01/08 08:33:44;;;;;;;24.23;12.32;;;0.80;99.90;;;;;;5006219;28;20143;-62
2022/01/08 08:36:09;;;;;;;30.50;15.18;;;0.80;99.90;;;;;;5008276;28;20073;-62
2022/01/08 08:38:35;;;;;;;26.45;14.57;;;0.80;99.90;;;;;;5009821;28;20103;-62
2022/01/08 08:41:00;;;;;;;31.08;14.45;;;0.90;99.90;;;;;;5008570;28;20061;-62
2022/01/08 08:43:26;;;;;;;27.52;12.45;;;0.90;99.90;;;;;;5008722;28;20049;-62
2022/01/08 08:45:52;;;;;;;30.63;15.23;;;1.00;99.90;;;;;;5009743;28;20038;-62
2022/01/08 08:48:17;;;;;;;30.05;14.82;;;1.00;99.90;;;;;;5009814;28;20041;-64
2022/01/08 08:50:44;;;;;;;30.83;14.68;;;1.10;99.90;;;;;;5008427;28;20050;-63
2022/01/08 08:53:10;;;;;;;27.23;14.38;;;1.10;99.90;;;;;;5009844;28;20045;-62
2022/01/08 08:55:36;;;;;;;29.90;16.50;;;1.10;99.90;;;;;;5012699;28;20401;-63
2022/01/08 08:58:02;;;;;;;30.02;16.85;;;1.20;99.90;;;;;;5012516;28;20537;-63
2022/01/08 09:00:28;;;;;;;28.17;16.38;;;1.30;99.90;;;;;;5012709;28;20049;-63
2022/01/08 09:02:53;;;;;;;35.20;18.98;;;1.30;99.90;;;;;;5012448;28;20044;-63
2022/01/08 09:08:01;;;;;;;38.58;20.30;;;1.30;99.90;;;;;;5086155;23;20054;-65
2022/01/08 09:10:26;;;;;;;33.28;17.58;;;1.40;99.90;;;;;;5011717;28;20038;-65
2022/01/08 09:19:09;;;;;;;30.15;15.48;;;1.60;99.90;;;;;;5224805;23;20700;-64
2022/01/08 09:24:25;;;;;;;34.08;16.65;;;1.60;99.90;;;;;;5611443;23;20531;-64
2022/01/08 09:26:51;;;;;;;31.05;16.92;;;1.60;99.90;;;;;;5032579;23;20584;-64
2022/01/08 09:29:17;;;;;;;30.10;16.50;;;1.70;99.90;;;;;;5310237;23;20069;-64
2022/01/08 09:31:43;;;;;;;37.40;15.80;;;1.70;99.90;;;;;;5533184;23;20497;-64
2022/01/08 09:39:25;;;;;;;34.03;16.02;;;1.70;99.90;;;;;;5551003;23;20069;-64
2022/01/08 09:45:02;;;;;;;29.10;14.60;;;1.70;99.90;;;;;;5957598;23;20204;-64
2022/01/08 09:47:29;;;;;;;28.55;15.32;;;1.80;99.90;;;;;;5014564;28;20042;-64
2022/01/08 09:50:46;;;;;;;26.52;14.73;;;1.80;99.90;;;;;;5015942;28;20056;-67
2022/01/08 09:56:13;;;;;;;25.85;13.80;;;1.80;99.90;;;;;;5308854;23;20073;-65
2022/01/08 09:58:39;;;;;;;28.52;14.52;;;1.90;99.90;;;;;;5010188;28;20430;-65
2022/01/08 10:07:43;;;;;;;25.90;12.07;;;2.10;99.90;;;;;;5151033;23;20104;-65
2022/01/08 10:10:17;;;;;;;26.33;13.80;;;2.20;99.90;;;;;;4992909;28;20046;-65
2022/01/08 10:13:00;;;;;;;27.08;14.30;;;2.20;99.90;;;;;;4977366;28;20046;-65
2022/01/08 10:21:30;;;;;;;26.58;15.18;;;2.40;99.90;;;;;;5043613;23;20057;-63
2022/01/08 10:24:00;;;;;;;28.05;15.40;;;2.50;99.90;;;;;;5010968;28;20029;-64
2022/01/08 10:26:31;;;;;;;22.98;13.45;;;2.60;99.90;;;;;;5011288;28;20513;-64
2022/01/08 10:29:03;;;;;;;23.65;13.55;;;2.70;99.90;;;;;;5009353;28;20034;-64
2022/01/08 10:31:38;;;;;;;29.15;16.80;;;2.80;99.90;;;;;;4988810;28;20108;-64
2022/01/08 10:34:11;;;;;;;27.08;15.20;;;2.90;99.90;;;;;;4990507;28;20554;-64
2022/01/08 10:36:41;;;;;;;23.55;13.70;;;2.90;99.90;;;;;;4991273;28;20084;-64
2022/01/08 10:39:17;;;;;;;34.20;15.80;;;3.00;99.90;;;;;;4990464;28;20494;-64
2022/01/08 10:41:44;;;;;;;24.50;14.93;;;3.10;99.90;;;;;;4989673;28;20043;-63
2022/01/08 10:44:19;;;;;;;24.77;15.52;;;3.10;99.90;;;;;;4990568;28;20046;-63
2022/01/08 10:46:57;;;;;;;25.25;15.10;;;3.20;99.90;;;;;;4991283;28;20042;-63
2022/01/08 10:49:41;;;;;;;23.02;13.13;;;3.20;99.90;;;;;;4990702;28;20042;-63
2022/01/08 10:52:18;;;;;;;25.42;14.82;;;3.20;99.90;;;;;;4989062;28;20050;-63
2022/01/08 10:55:01;;;;;;;26.40;13.65;;;3.20;99.90;;;;;;4989937;28;20038;-63
2022/01/08 10:57:40;;;;;;;26.58;13.90;;;3.30;99.90;;;;;;4990411;28;20105;-63
2022/01/08 11:00:09;;;;;;;24.63;13.40;;;3.30;99.90;;;;;;4989217;28;20074;-63
2022/01/08 11:02:35;;;;;;;27.02;17.30;;;3.40;99.90;;;;;;4989755;28;20046;-63
2022/01/08 11:05:06;;;;;;;27.40;14.45;;;3.50;99.90;;;;;;4990391;28;20042;-64
2022/01/08 11:07:32;;;;;;;30.27;14.63;;;3.50;99.90;;;;;;4990867;28;20161;-64
2022/01/08 11:10:04;;;;;;;27.83;13.82;;;3.60;99.90;;;;;;4990356;28;20030;-64
2022/01/08 11:12:38;;;;;;;26.60;14.57;;;3.70;99.90;;;;;;4990462;28;20042;-64
2022/01/08 11:17:44;;;;;;;32.35;15.80;;;3.70;99.90;;;;;;4986983;28;20046;-64
2022/01/08 11:20:21;;;;;;;26.63;14.32;;;3.80;99.90;;;;;;4989103;28;20038;-63
2022/01/08 11:22:52;;;;;;;26.85;16.48;;;3.70;99.90;;;;;;4989551;28;20462;-64
2022/01/08 11:25:21;;;;;;;29.90;17.15;;;3.70;99.90;;;;;;4989944;28;20159;-63
2022/01/08 11:28:11;;;;;;;31.00;17.55;;;3.70;99.90;;;;;;4989079;28;20046;-64
2022/01/08 11:30:56;;;;;;;27.92;16.45;;;3.70;99.90;;;;;;4972105;28;20042;-64
2022/01/08 11:33:30;;;;;;;31.58;18.15;;;3.70;99.90;;;;;;4989697;28;20043;-64
2022/01/08 11:35:57;;;;;;;30.35;18.75;;;3.70;99.90;;;;;;4989623;28;20486;-64
2022/01/08 11:38:25;;;;;;;32.45;17.75;;;3.70;99.90;;;;;;4971409;28;20088;-64
2022/01/08 11:40:55;;;;;;;34.05;21.20;;;3.70;99.90;;;;;;4989840;28;20038;-64
2022/01/08 11:43:23;;;;;;;34.50;19.45;;;3.70;99.90;;;;;;4989482;28;20046;-64
2022/01/08 11:46:01;;;;;;;30.73;19.05;;;3.80;99.90;;;;;;4989820;28;20034;-64
2022/01/08 11:48:39;;;;;;;31.00;20.63;;;3.80;99.90;;;;;;4989190;28;20046;-64
2022/01/08 11:51:06;;;;;;;37.22;19.58;;;3.90;99.90;;;;;;4989608;28;20049;-64
2022/01/08 11:53:44;;;;;;;35.25;19.73;;;3.90;99.90;;;;;;4989355;28;20068;-64
2022/01/08 11:56:40;;;;;;;36.50;22.23;;;4.00;99.90;;;;;;4955029;28;20042;-64
2022/01/08 11:59:13;;;;;;;35.53;20.95;;;4.00;99.90;;;;;;4988287;28;20054;-64
2022/01/08 12:01:43;;;;;;;28.00;17.48;;;4.00;99.90;;;;;;4989553;28;20125;-64
2022/01/08 12:04:31;;;;;;;35.97;21.95;;;4.00;99.90;;;;;;4989314;28;20081;-64
2022/01/08 12:06:57;;;;;;;40.70;22.10;;;4.10;99.90;;;;;;4988980;28;20049;-64
2022/01/08 12:09:24;;;;;;;34.35;21.55;;;4.10;99.90;;;;;;4988953;28;20038;-64
2022/01/08 12:11:51;;;;;;;34.42;20.50;;;4.10;99.90;;;;;;4989880;28;20046;-64
2022/01/08 12:14:19;;;;;;;39.90;20.17;;;4.10;99.90;;;;;;4991348;28;20050;-64
2022/01/08 12:16:47;;;;;;;39.17;22.17;;;4.20;99.90;;;;;;4990687;28;20045;-64
2022/01/08 12:19:46;;;;;;;35.70;20.33;;;4.10;99.90;;;;;;4989966;28;20113;-64
2022/01/08 12:22:20;;;;;;;39.97;20.60;;;4.10;99.90;;;;;;4986057;28;20042;-64
2022/01/08 12:24:58;;;;;;;31.98;19.17;;;4.10;99.90;;;;;;4991487;28;20045;-64
2022/01/08 12:27:35;;;;;;;36.92;19.63;;;4.00;99.90;;;;;;4991070;28;20104;-64
2022/01/08 12:30:15;;;;;;;37.40;21.67;;;4.10;99.90;;;;;;4990462;28;20442;-64
2022/01/08 12:32:46;;;;;;;36.90;20.40;;;4.00;99.90;;;;;;4990965;28;20082;-64
2022/01/08 12:35:16;;;;;;;32.88;19.85;;;4.00;99.90;;;;;;4991174;28;20061;-64
2022/01/08 12:37:44;;;;;;;38.95;22.38;;;4.00;99.90;;;;;;4990537;28;20050;-64
2022/01/08 12:40:12;;;;;;;41.65;21.67;;;4.00;99.90;;;;;;4991233;28;20104;-64
2022/01/08 12:42:42;;;;;;;46.20;23.65;;;4.00;99.90;;;;;;4991078;28;20042;-64
2022/01/08 12:45:18;;;;;;;46.17;26.05;;;4.00;99.90;;;;;;4990767;28;20718;-64
2022/01/08 12:48:00;;;;;;;39.92;22.33;;;4.00;99.90;;;;;;4989697;28;20066;-64
2022/01/08 12:50:51;;;;;;;44.03;23.13;;;3.90;99.90;;;;;;4990130;28;20520;-64
2022/01/08 12:53:20;;;;;;;46.75;23.08;;;4.00;99.90;;;;;;4990574;28;20667;-64
2022/01/08 12:55:48;;;;;;;40.10;20.70;;;4.00;99.90;;;;;;4955488;28;20041;-64
2022/01/08 12:58:30;;;;;;;51.30;23.52;;;4.00;99.90;;;;;;4989321;28;20121;-64
2022/01/08 13:01:01;;;;;;;38.95;20.38;;;4.00;99.90;;;;;;4992682;28;20042;-64
2022/01/08 13:03:34;;;;;;;40.05;21.40;;;4.00;99.90;;;;;;4992625;28;20046;-64
2022/01/08 13:06:20;;;;;;;32.85;17.00;;;4.10;99.90;;;;;;4991061;28;20100;-64
2022/01/08 13:08:49;;;;;;;40.22;21.13;;;4.00;99.90;;;;;;4991834;28;20050;-64
2022/01/08 13:11:20;;;;;;;39.13;22.60;;;4.10;99.90;;;;;;4992314;28;20050;-64
2022/01/08 13:13:48;;;;;;;39.97;20.38;;;4.10;99.90;;;;;;4992296;28;20113;-64
2022/01/08 13:16:16;;;;;;;33.97;17.45;;;4.10;99.90;;;;;;4992046;28;20074;-64
2022/01/08 13:19:07;;;;;;;37.40;19.00;;;4.20;99.90;;;;;;4992068;28;20050;-64
2022/01/08 13:21:47;;;;;;;37.10;18.60;;;4.20;99.90;;;;;;4991497;28;20042;-64
2022/01/08 13:24:20;;;;;;;40.92;19.58;;;4.20;99.90;;;;;;4991637;28;20038;-64
2022/01/08 13:26:58;;;;;;;33.15;15.15;;;4.20;99.90;;;;;;4973661;28;20046;-64
2022/01/08 13:29:37;;;;;;;33.63;17.55;;;4.30;99.90;;;;;;4973229;28;20675;-64
2022/01/08 13:32:08;;;;;;;34.90;17.67;;;4.30;99.90;;;;;;4991392;28;20046;-65
2022/01/08 13:34:45;;;;;;;32.60;17.88;;;4.30;99.90;;;;;;4991080;28;20034;-64
2022/01/08 13:37:23;;;;;;;35.95;17.85;;;4.30;99.90;;;;;;4991161;28;20058;-64
2022/01/08 13:39:55;;;;;;;38.03;19.05;;;4.30;99.90;;;;;;4991636;28;20181;-64